Time;durP1;ratioP1;P1;durP2;ratioP2;P2;SDS_P1;SDS_P2;PMS_P1;PMS_P2;Temp;Humidity;BMP_temperature;BMP_pressure;BME280_temperature;BME280_humidity;BME280_pressure;Samples;Min_cycle;Max_cycle;Signal;HPM_P1;HPM_P2
2021/03/06 00:00:12;;;;;;;16.15;8.60;;;;;;;;;;5015229;28;20026;-46
2021/03/06 00:02:38;;;;;;;16.50;9.35;;;;;;;;;;5013666;28;20494;-45
2021/03/06 00:05:05;;;;;;;17.08;9.48;;;;;;;;;;5015119;28;20029;-45
2021/03/06 00:07:31;;;;;;;14.75;7.70;;;;;;;;;;5014820;28;20022;-45
2021/03/06 00:09:57;;;;;;;18.45;10.50;;;;;;;;;;5014816;28;20029;-46
2021/03/06 00:12:23;;;;;;;17.88;10.43;;;;;;;;;;5014252;28;20172;-46
2021/03/06 00:14:49;;;;;;;20.75;11.52;;;;;;;;;;5013857;28;20366;-46
2021/03/06 00:17:15;;;;;;;21.20;12.68;;;;;;;;;;5014552;28;20026;-46
2021/03/06 00:19:41;;;;;;;27.95;15.18;;;;;;;;;;5014635;28;20018;-45
2021/03/06 00:22:08;;;;;;;25.80;15.40;;;;;;;;;;5014925;28;20076;-47
2021/03/06 00:24:34;;;;;;;27.95;16.45;;;;;;;;;;5014419;28;20513;-48
2021/03/06 00:27:00;;;;;;;25.83;14.68;;;;;;;;;;5014179;28;20469;-51
2021/03/06 00:29:26;;;;;;;25.65;15.05;;;;;;;;;;5014590;28;20105;-48
2021/03/06 00:31:52;;;;;;;26.83;14.90;;;;;;;;;;5014462;28;20100;-45
2021/03/06 00:34:18;;;;;;;31.33;16.67;;;;;;;;;;5014489;28;20026;-50
2021/03/06 00:36:44;;;;;;;28.30;14.75;;;;;;;;;;5014443;28;20365;-47
2021/03/06 00:39:10;;;;;;;32.53;15.95;;;;;;;;;;5014300;28;20038;-51
2021/03/06 00:41:36;;;;;;;28.38;15.45;;;;;;;;;;5013980;28;20026;-50
2021/03/06 00:44:02;;;;;;;28.95;15.52;;;;;;;;;;5014271;28;20113;-50
2021/03/06 00:46:29;;;;;;;23.60;13.40;;;;;;;;;;5013917;28;20041;-52
2021/03/06 00:48:55;;;;;;;23.88;14.43;;;;;;;;;;5013930;28;20358;-49
2021/03/06 00:51:22;;;;;;;22.98;13.50;;;;;;;;;;5014212;28;20022;-50
2021/03/06 00:53:48;;;;;;;19.15;11.63;;;;;;;;;;5014175;28;20389;-54
2021/03/06 00:56:14;;;;;;;19.08;10.80;;;;;;;;;;5013899;28;20053;-52
2021/03/06 00:58:40;;;;;;;23.98;12.77;;;;;;;;;;4996272;28;20045;-51
2021/03/06 01:01:07;;;;;;;20.83;11.07;;;;;;;;;;5014080;28;20025;-49
2021/03/06 01:03:33;;;;;;;19.83;10.93;;;;;;;;;;5013627;28;20140;-52
2021/03/06 01:05:59;;;;;;;16.67;10.00;;;;;;;;;;5013861;28;20033;-48
2021/03/06 01:08:26;;;;;;;16.83;10.80;;;;;;;;;;5013733;28;20033;-45
2021/03/06 01:10:52;;;;;;;15.20;8.95;;;;;;;;;;5013708;28;20031;-46
2021/03/06 01:13:19;;;;;;;15.23;8.07;;;;;;;;;;5013405;28;20042;-45
2021/03/06 01:15:46;;;;;;;13.95;7.82;;;;;;;;;;5013875;28;20208;-46
2021/03/06 01:18:12;;;;;;;12.73;7.20;;;;;;;;;;5013980;28;20417;-46
2021/03/06 01:20:38;;;;;;;12.75;7.55;;;;;;;;;;5013452;28;20022;-46
2021/03/06 01:23:05;;;;;;;13.25;8.52;;;;;;;;;;5013654;28;20033;-47
2021/03/06 01:25:31;;;;;;;13.10;8.40;;;;;;;;;;5013133;28;20132;-46
2021/03/06 01:27:57;;;;;;;16.83;9.43;;;;;;;;;;5013172;28;20061;-46
2021/03/06 01:30:24;;;;;;;17.48;10.15;;;;;;;;;;5013369;28;20029;-45
2021/03/06 01:32:51;;;;;;;18.30;11.02;;;;;;;;;;5013535;28;20038;-45
2021/03/06 01:35:19;;;;;;;17.17;10.88;;;;;;;;;;5013153;28;20018;-47
2021/03/06 01:37:45;;;;;;;17.33;10.35;;;;;;;;;;5013062;28;20037;-47
2021/03/06 01:40:12;;;;;;;15.65;9.95;;;;;;;;;;5013305;28;20424;-48
2021/03/06 01:42:39;;;;;;;17.55;10.15;;;;;;;;;;5013025;28;20469;-46
2021/03/06 01:45:06;;;;;;;16.65;9.65;;;;;;;;;;5012724;28;20474;-46
2021/03/06 01:47:33;;;;;;;14.68;9.38;;;;;;;;;;5012937;28;20061;-47
2021/03/06 01:49:59;;;;;;;17.77;9.80;;;;;;;;;;5013009;28;20033;-46
2021/03/06 01:52:26;;;;;;;17.48;9.35;;;;;;;;;;5013150;28;20369;-45
2021/03/06 01:54:52;;;;;;;16.35;9.20;;;;;;;;;;5012759;28;20028;-46
2021/03/06 01:57:18;;;;;;;14.55;8.82;;;;;;;;;;5013082;28;20144;-45
2021/03/06 01:59:45;;;;;;;17.20;8.70;;;;;;;;;;5012830;28;20029;-47
2021/03/06 02:02:11;;;;;;;14.48;8.00;;;;;;;;;;5012739;28;20111;-46
2021/03/06 02:04:37;;;;;;;12.75;7.55;;;;;;;;;;5012736;28;20032;-45
2021/03/06 02:07:03;;;;;;;12.60;6.82;;;;;;;;;;5012860;28;20450;-48
2021/03/06 02:09:30;;;;;;;11.82;7.18;;;;;;;;;;5012641;28;20073;-47
2021/03/06 02:12:09;;;;;;;10.52;6.07;;;;;;;;;;5012855;28;20022;-51
2021/03/06 02:14:53;;;;;;;11.25;6.68;;;;;;;;;;5012293;28;20029;-51
2021/03/06 02:17:27;;;;;;;11.88;6.32;;;;;;;;;;5011751;28;20026;-46
2021/03/06 02:19:53;;;;;;;;;;;;;;;;;;5012320;28;20049;-45
2021/03/06 02:22:28;;;;;;;11.50;6.65;;;;;;;;;;5012652;28;20438;-46
2021/03/06 02:24:57;;;;;;;11.50;6.13;;;;;;;;;;5013556;28;20037;-50
2021/03/06 02:27:33;;;;;;;12.00;6.53;;;;;;;;;;5012539;28;20034;-47
2021/03/06 02:30:00;;;;;;;12.27;6.55;;;;;;;;;;5012323;28;20454;-46
2021/03/06 02:32:29;;;;;;;10.20;6.40;;;;;;;;;;5012360;28;20037;-45
2021/03/06 02:35:03;;;;;;;12.60;7.38;;;;;;;;;;5012676;28;20112;-45
2021/03/06 02:37:32;;;;;;;11.15;6.55;;;;;;;;;;5012982;28;20502;-45
2021/03/06 02:39:58;;;;;;;11.10;6.72;;;;;;;;;;5016510;28;20172;-46
2021/03/06 02:42:25;;;;;;;10.88;6.80;;;;;;;;;;5016394;28;20357;-45
2021/03/06 02:44:52;;;;;;;9.32;5.55;;;;;;;;;;5016258;28;20033;-45
2021/03/06 02:47:18;;;;;;;11.98;6.80;;;;;;;;;;5016668;28;20026;-47
2021/03/06 02:49:45;;;;;;;11.20;6.03;;;;;;;;;;5016432;28;20478;-46
2021/03/06 02:52:11;;;;;;;12.23;6.65;;;;;;;;;;5016220;28;20026;-46
2021/03/06 02:54:38;;;;;;;12.13;6.45;;;;;;;;;;5016536;28;20034;-47
2021/03/06 02:57:04;;;;;;;10.52;6.43;;;;;;;;;;5016046;28;20022;-45
2021/03/06 02:59:49;;;;;;;11.40;6.65;;;;;;;;;;5016304;28;20030;-46
2021/03/06 03:02:27;;;;;;;10.77;6.15;;;;;;;;;;5016028;28;20050;-45
2021/03/06 03:04:54;;;;;;;10.40;5.93;;;;;;;;;;5016266;28;20049;-45
2021/03/06 03:07:28;;;;;;;10.98;6.28;;;;;;;;;;5016419;28;20084;-45
2021/03/06 03:09:55;;;;;;;12.30;6.65;;;;;;;;;;5014483;28;20358;-46
2021/03/06 03:12:23;;;;;;;11.63;6.53;;;;;;;;;;5296916;22;20411;-46
2021/03/06 03:14:56;;;;;;;11.35;6.45;;;;;;;;;;5034733;28;20064;-49
2021/03/06 03:17:42;;;;;;;14.07;7.47;;;;;;;;;;5034775;28;20043;-52
2021/03/06 03:20:26;;;;;;;12.43;7.40;;;;;;;;;;5035095;28;20036;-48
2021/03/06 03:22:56;;;;;;;10.60;6.85;;;;;;;;;;5034628;28;20080;-49
2021/03/06 03:25:22;;;;;;;12.15;6.78;;;;;;;;;;5034517;28;20064;-48
2021/03/06 03:27:49;;;;;;;11.65;6.72;;;;;;;;;;5034328;28;20022;-53
2021/03/06 03:30:16;;;;;;;11.68;6.95;;;;;;;;;;5034400;28;20496;-52
2021/03/06 03:32:43;;;;;;;27.65;11.23;;;;;;;;;;5034561;28;20055;-53
2021/03/06 03:35:11;;;;;;;32.03;11.80;;;;;;;;;;5034593;28;20029;-51
2021/03/06 03:37:37;;;;;;;40.38;13.88;;;;;;;;;;5034329;28;20037;-46
2021/03/06 03:40:05;;;;;;;48.35;16.20;;;;;;;;;;5034293;28;20468;-45
2021/03/06 03:42:31;;;;;;;49.63;16.10;;;;;;;;;;5034160;28;20099;-45
2021/03/06 03:44:58;;;;;;;50.00;17.17;;;;;;;;;;5034099;28;20034;-46
2021/03/06 03:47:24;;;;;;;46.55;16.50;;;;;;;;;;5034250;28;20108;-44
2021/03/06 03:49:50;;;;;;;49.95;16.58;;;;;;;;;;5034020;28;20029;-45
2021/03/06 03:52:17;;;;;;;49.03;16.15;;;;;;;;;;5034074;28;20033;-45
2021/03/06 03:54:43;;;;;;;42.05;14.50;;;;;;;;;;5034244;28;20025;-46
2021/03/06 03:57:09;;;;;;;46.28;16.55;;;;;;;;;;5033870;28;20045;-45
2021/03/06 03:59:36;;;;;;;39.90;15.52;;;;;;;;;;5033919;28;20667;-47
2021/03/06 04:02:02;;;;;;;25.63;12.15;;;;;;;;;;5033992;28;20030;-45
2021/03/06 04:04:31;;;;;;;24.17;9.52;;;;;;;;;;5033899;28;20025;-45
2021/03/06 04:06:58;;;;;;;24.52;8.93;;;;;;;;;;5033823;28;20095;-45
2021/03/06 04:09:24;;;;;;;23.73;9.75;;;;;;;;;;5034105;28;20049;-45
2021/03/06 04:11:50;;;;;;;20.63;9.07;;;;;;;;;;5033486;28;20469;-45
2021/03/06 04:14:16;;;;;;;29.20;10.85;;;;;;;;;;5033557;28;20104;-46
2021/03/06 04:16:43;;;;;;;32.08;12.48;;;;;;;;;;5033746;28;20025;-48
2021/03/06 04:19:09;;;;;;;36.42;11.68;;;;;;;;;;5033554;28;20466;-46
2021/03/06 04:21:35;;;;;;;30.85;11.52;;;;;;;;;;5033593;28;20026;-46
2021/03/06 04:24:01;;;;;;;34.97;12.63;;;;;;;;;;5033500;28;20033;-48
2021/03/06 04:26:27;;;;;;;36.95;12.90;;;;;;;;;;5033421;28;20025;-49
2021/03/06 04:28:53;;;;;;;32.72;11.77;;;;;;;;;;5033509;28;20021;-49
2021/03/06 04:31:20;;;;;;;36.05;13.57;;;;;;;;;;5033311;28;20025;-46
2021/03/06 04:33:46;;;;;;;31.23;13.13;;;;;;;;;;5033961;28;20414;-47
2021/03/06 04:36:12;;;;;;;34.17;12.93;;;;;;;;;;5033565;28;20021;-51
2021/03/06 04:38:38;;;;;;;30.63;12.65;;;;;;;;;;5033292;28;20032;-47
2021/03/06 04:41:04;;;;;;;24.88;12.05;;;;;;;;;;5033274;28;20076;-47
2021/03/06 04:43:30;;;;;;;25.80;11.23;;;;;;;;;;5032954;28;20034;-47
2021/03/06 04:45:56;;;;;;;25.55;10.73;;;;;;;;;;5033068;28;20091;-48
2021/03/06 04:48:23;;;;;;;22.95;11.05;;;;;;;;;;5033120;28;20036;-46
2021/03/06 04:50:49;;;;;;;26.90;11.60;;;;;;;;;;5033142;28;20229;-46
2021/03/06 04:53:15;;;;;;;24.23;12.18;;;;;;;;;;5033188;28;20045;-45
2021/03/06 04:55:41;;;;;;;26.58;11.80;;;;;;;;;;5032931;28;20079;-46
2021/03/06 04:58:07;;;;;;;30.42;11.63;;;;;;;;;;5032787;28;20065;-46
2021/03/06 05:00:33;;;;;;;29.13;13.02;;;;;;;;;;5032295;28;20029;-49
2021/03/06 05:02:59;;;;;;;26.50;11.95;;;;;;;;;;5032803;28;20511;-46
2021/03/06 05:05:25;;;;;;;31.05;12.32;;;;;;;;;;5032738;28;20095;-47
2021/03/06 05:07:52;;;;;;;32.20;12.75;;;;;;;;;;5032800;28;20038;-47
2021/03/06 05:10:21;;;;;;;32.83;14.18;;;;;;;;;;5033325;28;20125;-47
2021/03/06 05:12:47;;;;;;;30.98;15.25;;;;;;;;;;5032489;28;20077;-46
2021/03/06 05:15:13;;;;;;;24.63;13.30;;;;;;;;;;5032541;28;20033;-45
2021/03/06 05:17:39;;;;;;;31.02;15.68;;;;;;;;;;5032517;28;20096;-46
2021/03/06 05:20:05;;;;;;;28.65;15.27;;;;;;;;;;5032528;28;20033;-45
2021/03/06 05:22:32;;;;;;;32.30;17.55;;;;;;;;;;5032480;28;20053;-46
2021/03/06 05:24:58;;;;;;;36.40;20.25;;;;;;;;;;5032359;28;20057;-48
2021/03/06 05:27:24;;;;;;;37.40;21.33;;;;;;;;;;5032280;28;20038;-45
2021/03/06 05:29:50;;;;;;;32.45;20.27;;;;;;;;;;5032628;28;20048;-47
2021/03/06 05:32:16;;;;;;;33.85;20.73;;;;;;;;;;5032610;28;20031;-46
2021/03/06 05:34:42;;;;;;;31.63;18.13;;;;;;;;;;5032248;28;20025;-46
2021/03/06 05:37:08;;;;;;;29.42;18.88;;;;;;;;;;5032186;28;20033;-45
2021/03/06 05:39:34;;;;;;;30.60;19.00;;;;;;;;;;5032131;28;20061;-47
2021/03/06 05:42:00;;;;;;;32.35;18.67;;;;;;;;;;5032123;28;20090;-46
2021/03/06 05:44:27;;;;;;;25.85;16.40;;;;;;;;;;5031921;28;20022;-46
2021/03/06 05:46:57;;;;;;;24.25;15.73;;;;;;;;;;5031897;28;20531;-45
2021/03/06 05:49:23;;;;;;;23.70;14.77;;;;;;;;;;5031879;28;20037;-49
2021/03/06 05:51:49;;;;;;;23.58;14.00;;;;;;;;;;5032034;28;20036;-47
2021/03/06 05:54:15;;;;;;;25.40;13.65;;;;;;;;;;5031900;28;20028;-45
2021/03/06 05:56:42;;;;;;;17.23;11.55;;;;;;;;;;5031841;28;20021;-46
2021/03/06 05:59:10;;;;;;;17.15;11.45;;;;;;;;;;5031640;28;20108;-47
2021/03/06 06:01:37;;;;;;;16.60;10.27;;;;;;;;;;5031743;28;20085;-49
2021/03/06 06:04:04;;;;;;;16.45;9.98;;;;;;;;;;5031929;28;20412;-45
2021/03/06 06:06:31;;;;;;;14.38;10.15;;;;;;;;;;5031633;28;20034;-45
2021/03/06 06:09:01;;;;;;;17.65;10.50;;;;;;;;;;5031940;28;20267;-47
2021/03/06 06:11:31;;;;;;;19.05;10.98;;;;;;;;;;5031635;28;20025;-45
2021/03/06 06:13:57;;;;;;;22.13;10.05;;;;;;;;;;5030744;28;20048;-46
2021/03/06 06:16:23;;;;;;;19.13;10.50;;;;;;;;;;5031764;28;20053;-45
2021/03/06 06:18:50;;;;;;;16.15;11.02;;;;;;;;;;5031932;28;20365;-45
2021/03/06 06:21:34;;;;;;;14.93;8.27;;;;;;;;;;5031478;28;20029;-44
2021/03/06 06:24:04;;;;;;;18.67;7.88;;;;;;;;;;5031437;28;20025;-45
2021/03/06 06:26:30;;;;;;;10.85;7.18;;;;;;;;;;5031347;28;20049;-47
2021/03/06 06:28:57;;;;;;;20.83;7.82;;;;;;;;;;5031477;28;20033;-47
2021/03/06 06:31:24;;;;;;;14.93;8.13;;;;;;;;;;5031539;28;20025;-48
2021/03/06 06:33:52;;;;;;;9.45;6.15;;;;;;;;;;5031543;28;20026;-46
2021/03/06 06:36:40;;;;;;;15.90;5.57;;;;;;;;;;5031567;28;20026;-46
2021/03/06 06:39:07;;;;;;;15.90;6.97;;;;;;;;;;5031209;28;20036;-47
2021/03/06 06:41:49;;;;;;;15.00;6.38;;;;;;;;;;5031222;28;20473;-45
2021/03/06 06:44:15;;;;;;;11.07;5.50;;;;;;;;;;5031021;28;20523;-45
2021/03/06 06:46:41;;;;;;;11.68;5.20;;;;;;;;;;5031139;28;20034;-44
2021/03/06 06:49:07;;;;;;;11.88;5.22;;;;;;;;;;5031233;28;20111;-46
2021/03/06 06:51:34;;;;;;;11.00;4.10;;;;;;;;;;5031255;28;20030;-46
2021/03/06 06:54:15;;;;;;;6.78;4.20;;;;;;;;;;5031188;28;20417;-46
2021/03/06 06:56:41;;;;;;;9.20;5.95;;;;;;;;;;5031177;28;20025;-45
2021/03/06 06:59:08;;;;;;;12.98;7.30;;;;;;;;;;5030948;28;20078;-45
2021/03/06 07:01:36;;;;;;;11.75;6.15;;;;;;;;;;5031349;28;20044;-45
2021/03/06 07:04:04;;;;;;;12.00;5.50;;;;;;;;;;5031133;28;20021;-47
2021/03/06 07:06:30;;;;;;;10.00;5.25;;;;;;;;;;5031004;28;20559;-45
2021/03/06 07:09:09;;;;;;;8.00;4.43;;;;;;;;;;5031265;28;20451;-46
2021/03/06 07:11:35;;;;;;;13.15;5.38;;;;;;;;;;5030975;28;20341;-49
2021/03/06 07:14:01;;;;;;;13.85;6.15;;;;;;;;;;5030759;28;20085;-50
2021/03/06 07:16:47;;;;;;;14.63;7.25;;;;;;;;;;5030980;28;20373;-48
2021/03/06 07:19:13;;;;;;;10.95;5.63;;;;;;;;;;5030869;28;20021;-46
2021/03/06 07:21:49;;;;;;;12.93;6.22;;;;;;;;;;5030971;28;20025;-44
2021/03/06 07:24:15;;;;;;;18.33;7.95;;;;;;;;;;5032522;28;20053;-47
2021/03/06 07:26:41;;;;;;;16.40;6.65;;;;;;;;;;5034578;28;20033;-47
2021/03/06 07:29:07;;;;;;;14.32;6.20;;;;;;;;;;5034601;28;20028;-46
2021/03/06 07:31:36;;;;;;;14.90;6.75;;;;;;;;;;5034719;28;20037;-46
2021/03/06 07:34:03;;;;;;;13.48;6.28;;;;;;;;;;5034457;28;20436;-47
2021/03/06 07:36:29;;;;;;;16.50;4.53;;;;;;;;;;5034430;28;20022;-46
2021/03/06 07:38:59;;;;;;;15.20;4.95;;;;;;;;;;5034435;28;20049;-48
2021/03/06 07:41:26;;;;;;;7.82;3.75;;;;;;;;;;5034450;28;20540;-46
2021/03/06 07:43:52;;;;;;;11.23;4.38;;;;;;;;;;5034557;28;20040;-49
2021/03/06 07:46:18;;;;;;;12.82;5.57;;;;;;;;;;5034028;28;20034;-45
2021/03/06 07:48:49;;;;;;;14.07;6.05;;;;;;;;;;5034256;28;20022;-45
2021/03/06 07:51:15;;;;;;;12.98;5.57;;;;;;;;;;5034219;28;20036;-47
2021/03/06 07:53:45;;;;;;;12.02;5.97;;;;;;;;;;5034132;28;20029;-46
2021/03/06 07:56:11;;;;;;;11.57;5.05;;;;;;;;;;5034036;28;20562;-48
2021/03/06 07:59:06;;;;;;;14.73;5.57;;;;;;;;;;5034034;28;20032;-46
2021/03/06 08:01:33;;;;;;;14.27;6.53;;;;;;;;;;5020974;28;20122;-45
2021/03/06 08:04:00;;;;;;;12.25;5.60;;;;;;;;;;5034102;28;20032;-45
2021/03/06 08:06:30;;;;;;;15.65;5.82;;;;;;;;;;5034128;28;20362;-50
2021/03/06 08:08:57;;;;;;;9.23;4.00;;;;;;;;;;5034187;28;20026;-47
2021/03/06 08:11:23;;;;;;;9.05;4.85;;;;;;;;;;5033803;28;20026;-46
2021/03/06 08:13:53;;;;;;;11.05;4.82;;;;;;;;;;5033529;28;20551;-45
2021/03/06 08:16:25;;;;;;;10.02;4.43;;;;;;;;;;5033601;28;20029;-47
2021/03/06 08:18:51;;;;;;;13.43;6.60;;;;;;;;;;5033682;28;20060;-45
2021/03/06 08:21:31;;;;;;;13.18;6.43;;;;;;;;;;5033603;28;20090;-45
2021/03/06 08:24:15;;;;;;;13.10;5.35;;;;;;;;;;5033715;28;20034;-46
2021/03/06 08:26:44;;;;;;;15.93;5.47;;;;;;;;;;5033672;28;20052;-44
2021/03/06 08:29:22;;;;;;;8.30;4.35;;;;;;;;;;5033452;28;20048;-45
2021/03/06 08:32:12;;;;;;;9.40;4.70;;;;;;;;;;5033498;28;20388;-45
2021/03/06 08:34:45;;;;;;;11.60;5.85;;;;;;;;;;5033239;28;20030;-47
2021/03/06 08:39:53;;;;;;;13.90;7.00;;;;;;;;;;5033200;28;20029;-45
2021/03/06 08:42:21;;;;;;;11.88;5.22;;;;;;;;;;5033189;28;20025;-45
2021/03/06 08:44:47;;;;;;;12.48;5.72;;;;;;;;;;5033186;28;20553;-46
2021/03/06 08:47:34;;;;;;;14.65;4.28;;;;;;;;;;5032889;28;20026;-47
2021/03/06 08:50:01;;;;;;;10.90;5.25;;;;;;;;;;5033476;28;20044;-48
2021/03/06 08:52:29;;;;;;;14.50;6.60;;;;;;;;;;5033274;28;20106;-47
2021/03/06 08:54:55;;;;;;;15.38;6.28;;;;;;;;;;5015277;28;20396;-46
2021/03/06 08:57:32;;;;;;;14.82;6.53;;;;;;;;;;5032970;28;20029;-46
2021/03/06 08:59:59;;;;;;;15.07;7.15;;;;;;;;;;5033351;28;20104;-49
2021/03/06 09:02:29;;;;;;;15.70;7.03;;;;;;;;;;5032820;28;20025;-47
2021/03/06 09:05:01;;;;;;;14.63;7.45;;;;;;;;;;5032812;28;20052;-47
2021/03/06 09:07:35;;;;;;;11.43;4.72;;;;;;;;;;5032684;28;20029;-46
2021/03/06 09:10:21;;;;;;;15.05;5.78;;;;;;;;;;5032762;28;20029;-45
2021/03/06 09:12:48;;;;;;;10.00;4.63;;;;;;;;;;5032479;28;20053;-46
2021/03/06 09:15:28;;;;;;;13.18;5.68;;;;;;;;;;5032446;28;20068;-46
2021/03/06 09:17:55;;;;;;;13.10;5.35;;;;;;;;;;5032636;28;20408;-45
2021/03/06 09:20:21;;;;;;;13.15;5.25;;;;;;;;;;5032569;28;20065;-48
2021/03/06 09:22:48;;;;;;;11.10;4.93;;;;;;;;;;5032498;28;20495;-46
2021/03/06 09:25:15;;;;;;;13.18;5.70;;;;;;;;;;5032211;28;20030;-50
2021/03/06 09:27:45;;;;;;;11.30;5.35;;;;;;;;;;5032403;28;20029;-46
2021/03/06 09:30:50;;;;;;;10.00;4.55;;;;;;;;;;5032529;28;20432;-47
2021/03/06 09:33:22;;;;;;;8.55;4.53;;;;;;;;;;4971209;28;20026;-47
2021/03/06 09:35:58;;;;;;;9.48;4.68;;;;;;;;;;4971100;28;20049;-47
2021/03/06 09:38:25;;;;;;;8.98;5.20;;;;;;;;;;5006757;28;20046;-52
2021/03/06 09:40:51;;;;;;;8.27;3.85;;;;;;;;;;5032199;28;20029;-51
2021/03/06 09:43:23;;;;;;;9.93;5.10;;;;;;;;;;5032032;28;20033;-52
2021/03/06 09:45:49;;;;;;;9.43;3.67;;;;;;;;;;5032059;28;20041;-48
2021/03/06 09:48:16;;;;;;;11.45;5.85;;;;;;;;;;5031925;28;20029;-53
2021/03/06 09:50:43;;;;;;;14.98;5.43;;;;;;;;;;5032007;28;20032;-46
2021/03/06 09:53:17;;;;;;;16.00;4.90;;;;;;;;;;5031945;28;20029;-46
2021/03/06 09:55:43;;;;;;;12.75;5.93;;;;;;;;;;5031911;28;20385;-46
2021/03/06 09:58:19;;;;;;;12.82;5.28;;;;;;;;;;5031764;28;20026;-47
2021/03/06 10:00:45;;;;;;;10.00;3.90;;;;;;;;;;5031566;28;20058;-47
2021/03/06 10:03:11;;;;;;;8.70;4.88;;;;;;;;;;5031713;28;20495;-50
2021/03/06 10:05:37;;;;;;;10.60;5.05;;;;;;;;;;5031623;28;20032;-47
2021/03/06 10:08:04;;;;;;;11.82;4.15;;;;;;;;;;5031822;28;20136;-45
2021/03/06 10:10:30;;;;;;;9.30;4.70;;;;;;;;;;5031573;28;20029;-46
2021/03/06 10:12:57;;;;;;;7.18;3.88;;;;;;;;;;5031392;28;20053;-44
2021/03/06 10:15:23;;;;;;;12.75;4.10;;;;;;;;;;5031502;28;20473;-45
2021/03/06 10:17:50;;;;;;;10.20;5.07;;;;;;;;;;5031452;28;20053;-49
2021/03/06 10:20:26;;;;;;;11.00;6.20;;;;;;;;;;5031482;28;20032;-46
2021/03/06 10:22:53;;;;;;;10.63;5.75;;;;;;;;;;5031689;28;20430;-46
2021/03/06 10:25:27;;;;;;;14.80;5.70;;;;;;;;;;5031377;28;20034;-46
2021/03/06 10:27:53;;;;;;;10.00;5.10;;;;;;;;;;5031650;28;20675;-51
2021/03/06 10:30:27;;;;;;;10.80;5.60;;;;;;;;;;5031339;28;20053;-49
2021/03/06 10:32:56;;;;;;;11.30;5.80;;;;;;;;;;5031138;28;20045;-51
2021/03/06 10:35:49;;;;;;;11.63;5.97;;;;;;;;;;5031262;28;20025;-46
2021/03/06 10:38:24;;;;;;;14.10;7.00;;;;;;;;;;5028613;28;20099;-46
2021/03/06 10:40:55;;;;;;;14.60;6.38;;;;;;;;;;5031546;28;20017;-52
2021/03/06 10:43:41;;;;;;;16.63;5.60;;;;;;;;;;5031289;28;20392;-47
2021/03/06 10:46:17;;;;;;;15.68;7.05;;;;;;;;;;5031472;28;20069;-46
2021/03/06 10:48:44;;;;;;;13.55;6.13;;;;;;;;;;5031399;28;20369;-53
2021/03/06 10:51:10;;;;;;;11.68;6.10;;;;;;;;;;5031271;28;20101;-48
2021/03/06 10:53:37;;;;;;;12.38;6.07;;;;;;;;;;5031307;28;20021;-54
2021/03/06 10:56:06;;;;;;;15.68;5.30;;;;;;;;;;5031235;28;20033;-48
2021/03/06 10:58:43;;;;;;;17.25;7.13;;;;;;;;;;5031735;28;20049;-50
2021/03/06 11:01:09;;;;;;;16.08;7.55;;;;;;;;;;5035403;28;20377;-50
2021/03/06 11:03:42;;;;;;;16.58;5.95;;;;;;;;;;5035087;28;20013;-46
2021/03/06 11:06:08;;;;;;;13.50;5.13;;;;;;;;;;5035078;28;20033;-51
2021/03/06 11:08:34;;;;;;;13.43;6.40;;;;;;;;;;5034971;28;20022;-48
2021/03/06 11:11:00;;;;;;;18.52;7.38;;;;;;;;;;5034924;28;20026;-49
2021/03/06 11:13:38;;;;;;;19.27;7.18;;;;;;;;;;5034663;28;20080;-50
2021/03/06 11:16:04;;;;;;;17.45;7.03;;;;;;;;;;5034724;28;20026;-47
2021/03/06 11:18:30;;;;;;;15.38;7.00;;;;;;;;;;5034853;28;20380;-51
2021/03/06 11:20:56;;;;;;;17.40;6.93;;;;;;;;;;5034741;28;20377;-51
2021/03/06 11:23:22;;;;;;;16.73;7.38;;;;;;;;;;5034666;28;20100;-49
2021/03/06 11:25:49;;;;;;;16.83;7.70;;;;;;;;;;5034523;28;20061;-52
2021/03/06 11:28:16;;;;;;;19.95;7.18;;;;;;;;;;5034608;28;20034;-50
2021/03/06 11:30:45;;;;;;;18.88;6.88;;;;;;;;;;5034852;28;20435;-45
2021/03/06 11:33:13;;;;;;;14.50;6.90;;;;;;;;;;5034486;28;20025;-45
2021/03/06 11:35:40;;;;;;;17.38;6.88;;;;;;;;;;5034834;28;20420;-45
2021/03/06 11:38:07;;;;;;;16.25;6.85;;;;;;;;;;5034302;28;20030;-46
2021/03/06 11:40:34;;;;;;;15.68;7.00;;;;;;;;;;5034378;28;20566;-47
2021/03/06 11:43:00;;;;;;;16.55;7.78;;;;;;;;;;5034283;28;20045;-46
2021/03/06 11:45:26;;;;;;;19.67;9.73;;;;;;;;;;5034182;28;20117;-45
2021/03/06 11:47:53;;;;;;;15.07;9.18;;;;;;;;;;5034057;28;20095;-47
2021/03/06 11:50:21;;;;;;;18.30;9.52;;;;;;;;;;5034115;28;20544;-47
2021/03/06 11:52:47;;;;;;;15.80;7.90;;;;;;;;;;5034125;28;20041;-45
2021/03/06 11:55:14;;;;;;;15.57;8.43;;;;;;;;;;5034267;28;20026;-45
2021/03/06 11:57:40;;;;;;;16.17;8.98;;;;;;;;;;5034113;28;20028;-47
2021/03/06 12:00:07;;;;;;;19.05;9.48;;;;;;;;;;5034006;28;20538;-50
2021/03/06 12:02:33;;;;;;;18.95;7.90;;;;;;;;;;5033826;28;20025;-47
2021/03/06 12:05:00;;;;;;;15.30;9.00;;;;;;;;;;5033831;28;20469;-47
2021/03/06 12:07:26;;;;;;;12.13;7.03;;;;;;;;;;5033884;28;20038;-44
2021/03/06 12:09:52;;;;;;;12.68;7.88;;;;;;;;;;5033139;28;20021;-48
2021/03/06 12:12:18;;;;;;;15.85;9.25;;;;;;;;;;5033377;28;20042;-43
2021/03/06 12:14:44;;;;;;;11.95;7.38;;;;;;;;;;5034262;28;20029;-47
2021/03/06 12:17:10;;;;;;;12.95;6.82;;;;;;;;;;5034095;28;20030;-54
2021/03/06 12:19:36;;;;;;;16.15;8.23;;;;;;;;;;5033808;28;20025;-45
2021/03/06 12:22:02;;;;;;;19.50;9.00;;;;;;;;;;5033818;28;20500;-46
2021/03/06 12:24:28;;;;;;;15.98;8.43;;;;;;;;;;5033691;28;20037;-45
2021/03/06 12:26:54;;;;;;;13.15;8.10;;;;;;;;;;5033538;28;20034;-45
2021/03/06 12:29:21;;;;;;;14.55;8.52;;;;;;;;;;5033511;28;20029;-45
2021/03/06 12:31:47;;;;;;;17.13;9.98;;;;;;;;;;5033544;28;20053;-48
2021/03/06 12:34:14;;;;;;;13.93;8.80;;;;;;;;;;5033742;28;20021;-45
2021/03/06 12:36:40;;;;;;;16.17;10.00;;;;;;;;;;5033452;28;20472;-50
2021/03/06 12:39:07;;;;;;;16.58;9.48;;;;;;;;;;5033704;28;20075;-46
2021/03/06 12:41:33;;;;;;;18.25;8.90;;;;;;;;;;5033576;28;20021;-46
2021/03/06 12:43:59;;;;;;;16.27;8.30;;;;;;;;;;5033307;28;20049;-46
2021/03/06 12:46:25;;;;;;;14.63;7.90;;;;;;;;;;5033147;28;20029;-45
2021/03/06 12:48:51;;;;;;;12.18;8.05;;;;;;;;;;5033048;28;20044;-46
2021/03/06 12:51:18;;;;;;;17.25;8.35;;;;;;;;;;5033124;28;20465;-47
2021/03/06 12:53:44;;;;;;;12.50;8.02;;;;;;;;;;5033275;28;20036;-45
2021/03/06 12:56:10;;;;;;;13.07;8.32;;;;;;;;;;5033033;28;20117;-51
2021/03/06 12:58:36;;;;;;;13.77;8.48;;;;;;;;;;5033246;28;20354;-49
2021/03/06 13:01:03;;;;;;;16.73;9.63;;;;;;;;;;5032919;28;20083;-45
2021/03/06 13:03:29;;;;;;;17.80;9.23;;;;;;;;;;5032753;28;20060;-46
2021/03/06 13:05:55;;;;;;;18.98;10.70;;;;;;;;;;5032655;28;20041;-49
2021/03/06 13:08:21;;;;;;;20.58;11.18;;;;;;;;;;5032857;28;20119;-47
2021/03/06 13:10:47;;;;;;;18.05;9.15;;;;;;;;;;5033022;28;20048;-47
2021/03/06 13:13:13;;;;;;;13.30;9.13;;;;;;;;;;5032972;28;20060;-46
2021/03/06 13:15:40;;;;;;;18.52;10.07;;;;;;;;;;5015014;28;20392;-46
2021/03/06 13:18:06;;;;;;;17.58;9.43;;;;;;;;;;5033162;28;21066;-48
2021/03/06 13:20:32;;;;;;;16.77;8.45;;;;;;;;;;5032687;28;20029;-47
2021/03/06 13:22:58;;;;;;;14.30;8.38;;;;;;;;;;5032232;28;20029;-45
2021/03/06 13:25:25;;;;;;;16.23;8.30;;;;;;;;;;5032467;28;20108;-45
2021/03/06 13:27:51;;;;;;;11.60;7.97;;;;;;;;;;5032472;28;20040;-45
2021/03/06 13:30:17;;;;;;;12.60;8.15;;;;;;;;;;5032617;28;20132;-45
2021/03/06 13:32:43;;;;;;;14.20;7.90;;;;;;;;;;5032568;28;20029;-46
2021/03/06 13:35:11;;;;;;;20.88;7.80;;;;;;;;;;5032289;28;20029;-45
2021/03/06 13:37:38;;;;;;;15.98;8.52;;;;;;;;;;5032385;28;21077;-45
2021/03/06 13:40:05;;;;;;;17.70;9.93;;;;;;;;;;5032207;28;20108;-45
2021/03/06 13:42:31;;;;;;;19.38;9.73;;;;;;;;;;5032237;28;20032;-47
2021/03/06 13:44:57;;;;;;;15.50;9.10;;;;;;;;;;5032127;28;20029;-45
2021/03/06 13:47:23;;;;;;;15.85;8.95;;;;;;;;;;5031960;28;20087;-44
2021/03/06 13:49:50;;;;;;;17.52;9.85;;;;;;;;;;5032081;28;20035;-44
2021/03/06 13:52:16;;;;;;;22.33;8.57;;;;;;;;;;5032046;28;20025;-46
2021/03/06 13:54:42;;;;;;;18.90;9.55;;;;;;;;;;5032002;28;20049;-52
2021/03/06 13:57:08;;;;;;;20.10;10.77;;;;;;;;;;5031886;28;20018;-52
2021/03/06 13:59:34;;;;;;;15.23;9.80;;;;;;;;;;5032243;28;20041;-52
2021/03/06 14:02:00;;;;;;;18.10;9.63;;;;;;;;;;5032132;28;20396;-51
2021/03/06 14:04:26;;;;;;;20.60;8.98;;;;;;;;;;5031683;28;20028;-50
2021/03/06 14:06:53;;;;;;;18.17;8.85;;;;;;;;;;5031655;28;20044;-48
2021/03/06 14:09:19;;;;;;;24.50;9.10;;;;;;;;;;5031851;28;20088;-45
2021/03/06 14:11:45;;;;;;;16.00;8.20;;;;;;;;;;5031833;28;20049;-45
2021/03/06 14:14:12;;;;;;;16.77;8.50;;;;;;;;;;5031631;28;20474;-51
2021/03/06 14:16:38;;;;;;;16.20;8.85;;;;;;;;;;5031651;28;20037;-47
2021/03/06 14:19:04;;;;;;;20.75;8.52;;;;;;;;;;5031482;28;20071;-42
2021/03/06 14:21:30;;;;;;;16.25;8.32;;;;;;;;;;5031684;28;20025;-45
2021/03/06 14:23:57;;;;;;;15.98;8.70;;;;;;;;;;5031614;28;20025;-46
2021/03/06 14:26:23;;;;;;;15.20;8.77;;;;;;;;;;5031615;28;20094;-47
2021/03/06 14:28:50;;;;;;;20.35;10.35;;;;;;;;;;5031697;28;20465;-45
2021/03/06 14:31:16;;;;;;;19.73;9.60;;;;;;;;;;5031514;28;20029;-45
2021/03/06 14:33:43;;;;;;;17.58;8.77;;;;;;;;;;5030542;28;20029;-45
2021/03/06 14:36:11;;;;;;;12.73;7.38;;;;;;;;;;5031463;28;20472;-44